Chadwick, Missouri
Current Conditions -  °F | °C
As of 5:55 PM on Friday 31 Oct 2014 (Local Time) from KFWB Reporting Station
Clear Clear  
Wind Chill: 39°   Ceiling: Unl
Heat Index: 43°   Visibility: 10mi
Dew Point: 18°   Wind: 6mph
Humidity: 36%   Direction: 360°N
Pressure: 30.37"   Gusts: NA
Location:  36.93°N, 93.06°W
Report Text: KFWB 312255Z AUTO 36005KT 10SM CLR 06/M08 A3037 RMK AO2
Loading
Personal Weather Stations






























Interactive Weather Map
Tropical Storm Tracking
New forecast layout! Learn more

10-Day Weather Forecast

Advertisements
Track Severe Weather on mobile